createdAt,value
2023-02-11T00:01:21.569Z,102815.56
2023-02-11T00:03:48.316Z,102808.13
2023-02-11T00:06:15.152Z,102803.13
2023-02-11T00:08:41.757Z,102806.84
2023-02-11T00:11:13.377Z,102805.94
2023-02-11T00:13:40.064Z,102796.22
2023-02-11T00:16:11.769Z,102805.13
2023-02-11T00:18:38.491Z,102796.09
2023-02-11T00:21:19.564Z,102795.84
2023-02-11T00:23:47.058Z,102791.22
2023-02-11T00:26:16.610Z,102781.16
2023-02-11T00:28:44.090Z,102776.53
2023-02-11T00:31:11.641Z,102773.53
2023-02-11T00:33:38.375Z,102775.59
2023-02-11T00:36:07.640Z,102784.00
2023-02-11T00:38:34.346Z,102785.94
2023-02-11T00:41:01.068Z,102792.38
2023-02-11T00:43:27.875Z,102793.19
2023-02-11T00:45:54.474Z,102796.28
2023-02-11T00:48:21.079Z,102796.50
2023-02-11T00:50:47.710Z,102787.28
2023-02-11T00:53:14.336Z,102783.09
2023-02-11T00:55:40.952Z,102778.16
2023-02-11T00:58:07.701Z,102769.97
2023-02-11T01:00:35.168Z,102759.81
2023-02-11T01:03:01.777Z,102765.56
2023-02-11T01:05:28.974Z,102773.91
2023-02-11T01:07:55.737Z,102777.47
2023-02-11T01:10:22.372Z,102780.75
2023-02-11T01:12:49.011Z,102784.44
2023-02-11T01:15:19.409Z,102781.31
2023-02-11T01:17:46.134Z,102781.66
2023-02-11T01:20:16.918Z,102789.31
2023-02-11T01:22:43.588Z,102795.47
2023-02-11T01:25:10.471Z,102787.03
2023-02-11T01:27:37.527Z,102780.22
2023-02-11T01:30:05.628Z,102784.13
2023-02-11T01:32:32.488Z,102781.16
2023-02-11T01:34:59.053Z,102777.50
2023-02-11T01:37:25.845Z,102780.34
2023-02-11T01:39:52.498Z,102798.09
2023-02-11T01:42:20.940Z,102811.63
2023-02-11T01:44:51.393Z,102811.69
2023-02-11T01:47:18.811Z,102800.75
2023-02-11T01:49:50.950Z,102805.59
2023-02-11T01:52:22.403Z,102787.09
2023-02-11T01:55:24.444Z,102780.66
2023-02-11T01:57:52.972Z,102775.47
2023-02-11T02:00:26.640Z,102768.75
2023-02-11T02:03:15.954Z,102764.78
2023-02-11T02:06:16.793Z,102757.31
2023-02-11T02:08:55.604Z,102758.81
2023-02-11T02:11:22.758Z,102765.22
2023-02-11T02:13:49.546Z,102762.38
2023-02-11T02:16:18.880Z,102768.16
2023-02-11T02:19:07.468Z,102766.41
2023-02-11T02:21:45.217Z,102760.34
2023-02-11T02:24:24.065Z,102768.91
2023-02-11T02:27:25.637Z,102757.44
2023-02-11T02:29:57.872Z,102758.66
2023-02-11T02:32:30.527Z,102757.88
2023-02-11T02:35:04.715Z,102751.41
2023-02-11T02:37:37.613Z,102751.47
2023-02-11T02:40:10.005Z,102757.59
2023-02-11T02:42:36.898Z,102747.47
2023-02-11T02:45:03.658Z,102748.66
2023-02-11T02:47:30.446Z,102750.25
2023-02-11T02:49:57.026Z,102746.41
2023-02-11T02:52:33.724Z,102750.41
2023-02-11T02:55:16.296Z,102748.59
2023-02-11T02:58:18.313Z,102748.81
2023-02-11T03:01:11.992Z,102741.75
2023-02-11T03:04:18.333Z,102730.78
2023-02-11T03:06:53.846Z,102726.97
2023-02-11T03:09:28.644Z,102726.66
2023-02-11T03:11:55.699Z,102713.13
2023-02-11T03:14:24.443Z,102722.97
2023-02-11T03:16:51.912Z,102711.88
2023-02-11T03:19:24.655Z,102718.00
2023-02-11T03:21:52.442Z,102709.41
2023-02-11T03:24:39.194Z,102705.81
2023-02-11T03:27:22.099Z,102714.78
2023-02-11T03:29:49.398Z,102713.88
2023-02-11T03:32:37.053Z,102719.97
2023-02-11T03:35:29.425Z,102716.59
2023-02-11T03:38:04.470Z,102726.91
2023-02-11T03:40:41.436Z,102723.88
2023-02-11T03:43:34.095Z,102725.38
2023-02-11T03:46:01.762Z,102721.81
2023-02-11T03:48:32.671Z,102706.25
2023-02-11T03:51:02.149Z,102719.22
2023-02-11T03:53:28.790Z,102710.44
2023-02-11T03:55:57.151Z,102719.94
2023-02-11T03:58:23.745Z,102714.03
2023-02-11T04:00:50.434Z,102708.94
2023-02-11T04:03:17.232Z,102703.69
2023-02-11T04:05:46.025Z,102698.19
2023-02-11T04:08:12.917Z,102710.72
2023-02-11T04:10:39.526Z,102712.22
2023-02-11T04:13:06.116Z,102707.16
2023-02-11T04:15:32.856Z,102696.50
2023-02-11T04:17:59.522Z,102692.81
2023-02-11T04:20:26.130Z,102690.38
2023-02-11T04:22:52.747Z,102689.22
2023-02-11T04:25:19.450Z,102704.31
2023-02-11T04:27:46.051Z,102703.72
2023-02-11T04:30:13.224Z,102709.59
2023-02-11T04:32:39.827Z,102713.41
2023-02-11T04:35:06.642Z,102734.59
2023-02-11T04:37:33.235Z,102716.59
2023-02-11T04:39:59.872Z,102721.81
2023-02-11T04:42:26.517Z,102728.09
2023-02-11T04:44:53.146Z,102726.88
2023-02-11T04:47:19.697Z,102729.16
2023-02-11T04:49:46.424Z,102733.91
2023-02-11T04:52:13.055Z,102742.47
2023-02-11T04:54:39.719Z,102739.53
2023-02-11T04:57:06.762Z,102724.50
2023-02-11T04:59:33.397Z,102723.47
2023-02-11T05:01:59.973Z,102718.13
2023-02-11T05:04:26.627Z,102704.50
2023-02-11T05:06:53.309Z,102714.16
2023-02-11T05:09:20.018Z,102711.63
2023-02-11T05:11:46.695Z,102709.84
2023-02-11T05:14:13.534Z,102715.75
2023-02-11T05:16:41.132Z,102713.13
2023-02-11T05:19:07.800Z,102715.38
2023-02-11T05:21:34.440Z,102723.19
2023-02-11T05:24:01.062Z,102724.91
2023-02-11T05:26:29.762Z,102722.41
2023-02-11T05:28:56.491Z,102716.56
2023-02-11T05:31:23.083Z,102715.47
2023-02-11T05:33:49.643Z,102715.03
2023-02-11T05:36:16.847Z,102711.91
2023-02-11T05:38:43.760Z,102709.78
2023-02-11T05:41:11.888Z,102700.41
2023-02-11T05:43:38.635Z,102694.88
2023-02-11T05:46:05.794Z,102705.13
2023-02-11T05:48:32.925Z,102698.59
2023-02-11T05:50:59.564Z,102700.13
2023-02-11T05:53:26.275Z,102697.84
2023-02-11T05:55:53.177Z,102709.16
2023-02-11T05:58:19.832Z,102707.31
2023-02-11T06:00:46.490Z,102701.97
2023-02-11T06:03:13.148Z,102708.47
2023-02-11T06:05:39.815Z,102708.97
2023-02-11T06:08:06.384Z,102707.06
2023-02-11T06:10:33.054Z,102696.50
2023-02-11T06:12:59.697Z,102700.59
2023-02-11T06:15:26.346Z,102708.94
2023-02-11T06:17:52.944Z,102710.03
2023-02-11T06:20:19.795Z,102716.38
2023-02-11T06:22:46.707Z,102716.22
2023-02-11T06:25:14.147Z,102708.88
2023-02-11T06:27:40.868Z,102704.56
2023-02-11T06:30:08.548Z,102703.03
2023-02-11T06:32:43.948Z,102707.03
2023-02-11T06:35:12.652Z,102706.06
2023-02-11T06:37:40.226Z,102713.22
2023-02-11T06:40:07.193Z,102709.81
2023-02-11T06:42:34.662Z,102711.19
2023-02-11T06:45:01.306Z,102721.72
2023-02-11T06:47:28.015Z,102717.03
2023-02-11T06:49:54.606Z,102713.97
2023-02-11T06:52:21.228Z,102711.88
2023-02-11T06:54:47.844Z,102712.78
2023-02-11T06:57:14.510Z,102719.28
2023-02-11T06:59:41.142Z,102726.44
2023-02-11T07:02:09.811Z,102722.25
2023-02-11T07:04:36.452Z,102718.56
2023-02-11T07:07:03.082Z,102716.00
2023-02-11T07:09:29.677Z,102718.03
2023-02-11T07:11:56.358Z,102728.56
2023-02-11T07:14:22.920Z,102726.97
2023-02-11T07:16:49.521Z,102725.88
2023-02-11T07:19:16.268Z,102735.31
2023-02-11T07:21:42.903Z,102726.25
2023-02-11T07:24:11.247Z,102728.19
2023-02-11T07:26:38.169Z,102732.63
2023-02-11T07:29:05.062Z,102729.84
2023-02-11T07:31:32.405Z,102738.53
2023-02-11T07:34:01.072Z,102744.88
2023-02-11T07:36:28.703Z,102738.16
2023-02-11T07:38:55.376Z,102737.31
2023-02-11T07:41:23.997Z,102733.94
2023-02-11T07:43:50.905Z,102739.16
2023-02-11T07:46:20.745Z,102743.81
2023-02-11T07:48:47.517Z,102751.94
2023-02-11T07:51:15.516Z,102748.31
2023-02-11T07:53:42.575Z,102757.59
2023-02-11T07:56:10.606Z,102755.69
2023-02-11T07:58:37.424Z,102758.31
2023-02-11T08:01:05.906Z,102753.19
2023-02-11T08:03:33.251Z,102749.59
2023-02-11T08:06:06.744Z,102752.16
2023-02-11T08:08:33.703Z,102753.41
2023-02-11T08:11:09.384Z,102753.69
2023-02-11T08:13:36.674Z,102758.47
2023-02-11T08:16:04.410Z,102754.56
2023-02-11T08:18:31.548Z,102766.59
2023-02-11T08:21:04.798Z,102752.22
2023-02-11T08:23:31.546Z,102751.06
2023-02-11T08:26:05.464Z,102758.41
2023-02-11T08:28:32.340Z,102758.94
2023-02-11T08:31:05.797Z,102770.47
2023-02-11T08:33:33.513Z,102772.81
2023-02-11T08:36:00.240Z,102780.88
2023-02-11T08:38:26.930Z,102780.50
2023-02-11T08:40:53.610Z,102787.31
2023-02-11T08:43:20.317Z,102777.38
2023-02-11T08:45:47.106Z,102783.97
2023-02-11T08:48:13.739Z,102763.41
2023-02-11T08:50:40.564Z,102776.84
2023-02-11T08:53:07.450Z,102773.66
2023-02-11T08:55:34.528Z,102782.97
2023-02-11T08:58:01.145Z,102772.59
2023-02-11T09:00:28.000Z,102778.75
2023-02-11T09:02:57.142Z,102784.63
2023-02-11T09:05:23.864Z,102774.78
2023-02-11T09:07:50.596Z,102784.69
2023-02-11T09:10:17.239Z,102791.09
2023-02-11T09:12:43.846Z,102800.94
2023-02-11T09:15:10.498Z,102801.22
2023-02-11T09:17:39.413Z,102806.91
